createdAt,value
2023-03-12T00:04:36.515Z,99289.41
2023-03-12T00:09:39.720Z,99290.59
2023-03-12T00:14:41.909Z,99282.03
2023-03-12T00:19:45.583Z,99288.19
2023-03-12T00:24:52.114Z,99302.56
2023-03-12T00:29:54.784Z,99311.69
2023-03-12T00:34:57.105Z,99316.84
2023-03-12T00:39:59.876Z,99297.91
2023-03-12T00:45:02.138Z,99284.41
2023-03-12T00:50:04.815Z,99306.47
2023-03-12T00:55:07.268Z,99299.28
2023-03-12T01:00:13.167Z,99291.31
2023-03-12T01:05:16.614Z,99300.34
2023-03-12T01:10:21.940Z,99293.56
2023-03-12T01:15:25.180Z,99300.94
2023-03-12T01:20:27.711Z,99290.88
2023-03-12T01:25:29.876Z,99292.88
2023-03-12T01:30:32.177Z,99280.34
2023-03-12T01:35:39.819Z,99267.19
2023-03-12T01:40:43.988Z,99267.16
2023-03-12T01:46:16.638Z,99263.66
2023-03-12T01:51:20.066Z,99271.16
2023-03-12T01:56:22.721Z,99264.03
2023-03-12T02:01:25.495Z,99270.47
2023-03-12T02:06:53.698Z,99269.19
2023-03-12T02:11:56.086Z,99302.47
2023-03-12T02:16:58.857Z,99290.59
2023-03-12T02:22:02.110Z,99293.94
2023-03-12T02:27:06.467Z,99322.28
2023-03-12T02:32:10.317Z,99313.09
2023-03-12T02:37:12.455Z,99347.25
2023-03-12T02:42:15.493Z,99328.31
2023-03-12T02:47:18.057Z,99359.09
2023-03-12T02:52:20.233Z,99368.38
2023-03-12T02:57:22.435Z,99361.44
2023-03-12T03:02:24.855Z,99383.09
2023-03-12T03:07:26.961Z,99412.75
2023-03-12T03:12:29.972Z,99415.00
2023-03-12T03:17:32.211Z,99426.63
2023-03-12T03:22:34.414Z,99434.69
2023-03-12T03:27:36.707Z,99431.25
2023-03-12T03:32:39.449Z,99425.16
2023-03-12T03:37:41.591Z,99446.59
2023-03-12T03:42:43.826Z,99429.75
2023-03-12T03:47:46.928Z,99441.81
2023-03-12T03:52:49.082Z,99460.03
2023-03-12T03:57:51.254Z,99454.81
2023-03-12T04:02:53.569Z,99452.97
2023-03-12T04:07:56.662Z,99452.88
2023-03-12T04:12:59.018Z,99458.59
2023-03-12T04:18:01.233Z,99465.03
2023-03-12T04:23:03.406Z,99472.19
2023-03-12T04:28:06.654Z,99476.31
2023-03-12T04:33:09.285Z,99479.84
2023-03-12T04:38:11.979Z,99503.63
2023-03-12T04:43:14.617Z,99520.78
2023-03-12T04:48:16.723Z,99519.19
2023-03-12T04:53:19.905Z,99533.13
2023-03-12T04:58:22.768Z,99560.41
2023-03-12T05:03:25.231Z,99566.16
2023-03-12T05:08:27.516Z,99579.78
2023-03-12T05:13:29.676Z,99577.56
2023-03-12T05:18:31.942Z,99599.84
2023-03-12T05:23:35.129Z,99630.19
2023-03-12T05:28:37.241Z,99609.50
2023-03-12T05:33:39.479Z,99626.50
2023-03-12T05:38:43.045Z,99650.81
2023-03-12T05:43:46.790Z,99653.00
2023-03-12T05:48:49.007Z,99666.16
2023-03-12T05:53:51.156Z,99679.91
2023-03-12T05:58:53.765Z,99669.63
2023-03-12T06:03:56.150Z,99693.16
2023-03-12T06:08:58.311Z,99689.75
2023-03-12T06:14:00.435Z,99699.22
2023-03-12T06:19:04.296Z,99697.72
2023-03-12T06:24:07.099Z,99683.66
2023-03-12T06:29:09.357Z,99702.91
2023-03-12T06:34:11.556Z,99711.06
2023-03-12T06:39:13.841Z,99716.84
2023-03-12T06:44:16.198Z,99735.41
2023-03-12T06:49:19.348Z,99706.72
2023-03-12T06:54:21.443Z,99744.13
2023-03-12T06:59:25.275Z,99748.03
2023-03-12T07:04:27.441Z,99732.16
2023-03-12T07:09:29.674Z,99780.91
2023-03-12T07:14:31.808Z,99758.09
2023-03-12T07:19:34.023Z,99762.38
2023-03-12T07:24:36.213Z,99778.84
2023-03-12T07:29:38.426Z,99806.34
2023-03-12T07:34:40.568Z,99803.59
2023-03-12T07:39:44.788Z,99819.84
2023-03-12T07:44:47.244Z,99827.00
2023-03-12T07:55:11.251Z,99832.50
2023-03-12T08:00:14.278Z,99839.38
2023-03-12T08:05:16.655Z,99855.03
2023-03-12T08:10:20.720Z,99852.78
2023-03-12T08:15:23.060Z,99851.56
2023-03-12T08:20:25.239Z,99839.59
2023-03-12T08:25:27.842Z,99854.44
2023-03-12T08:30:31.127Z,99877.22
2023-03-12T08:35:33.292Z,99878.03
2023-03-12T08:40:35.918Z,99849.31
2023-03-12T08:45:38.210Z,99885.88
2023-03-12T08:50:40.394Z,99849.41
2023-03-12T08:55:42.622Z,99866.28
2023-03-12T09:00:44.848Z,99858.38
2023-03-12T09:05:46.978Z,99850.38
2023-03-12T09:10:50.480Z,99881.47
2023-03-12T09:15:52.563Z,99875.41
2023-03-12T09:20:54.944Z,99892.88
2023-03-12T09:25:57.709Z,99881.81
2023-03-12T09:31:02.838Z,99887.91
2023-03-12T09:36:05.284Z,99898.59
2023-03-12T09:41:27.556Z,99904.88
2023-03-12T09:46:47.572Z,99924.97
2023-03-12T09:51:55.466Z,99924.63
2023-03-12T09:57:03.445Z,99921.88
2023-03-12T10:02:25.560Z,99936.25
2023-03-12T10:07:42.014Z,99945.97
2023-03-12T10:13:05.265Z,99915.28
2023-03-12T10:18:38.748Z,99923.19
2023-03-12T10:24:03.053Z,99969.53
2023-03-12T10:29:16.540Z,99960.28
2023-03-12T10:34:33.091Z,99972.53
2023-03-12T10:39:35.822Z,99994.47
2023-03-12T10:44:37.892Z,99997.69
2023-03-12T10:49:40.913Z,99975.19
2023-03-12T10:54:45.368Z,99997.50
2023-03-12T10:59:49.323Z,99994.28
2023-03-12T11:04:53.078Z,99991.19
2023-03-12T11:10:26.352Z,100009.69
2023-03-12T11:15:38.474Z,100005.50
2023-03-12T11:20:41.081Z,100009.06
2023-03-12T11:25:44.334Z,100005.47
2023-03-12T11:30:47.372Z,99992.78
2023-03-12T11:36:10.657Z,100006.41
2023-03-12T11:41:47.831Z,100006.06
2023-03-12T11:47:21.349Z,100004.88
2023-03-12T11:52:41.333Z,100004.88
2023-03-12T11:57:59.908Z,100011.81
2023-03-12T12:03:16.289Z,100020.66
2023-03-12T12:08:36.692Z,100025.25
2023-03-12T12:13:53.314Z,100027.78
2023-03-12T12:19:40.571Z,100023.41
2023-03-12T12:25:14.830Z,100006.16
2023-03-12T12:30:41.580Z,100023.31
2023-03-12T12:35:44.171Z,100010.06
2023-03-12T12:40:55.002Z,100004.06
2023-03-12T12:46:02.720Z,100023.47
2023-03-12T12:51:08.783Z,100018.56
2023-03-12T12:56:33.875Z,100020.34
2023-03-12T13:01:38.381Z,100032.06
2023-03-12T13:07:19.205Z,100037.00
2023-03-12T13:12:50.852Z,100051.13
2023-03-12T13:17:53.134Z,100044.69
2023-03-12T13:23:07.310Z,100055.63
2023-03-12T13:28:33.151Z,100068.00
2023-03-12T13:33:48.852Z,100061.09
2023-03-12T13:39:01.176Z,100066.38
2023-03-12T13:44:38.793Z,100076.63
2023-03-12T13:49:53.100Z,100082.72
2023-03-12T13:55:07.013Z,100081.81
2023-03-12T14:00:30.112Z,100082.13
2023-03-12T14:05:36.135Z,100067.75
2023-03-12T14:10:54.096Z,100084.44
2023-03-12T14:16:14.603Z,100097.19
2023-03-12T14:21:18.840Z,100090.16
2023-03-12T14:26:40.330Z,100083.50
2023-03-12T14:31:50.461Z,100093.78
2023-03-12T14:37:10.538Z,100097.66
2023-03-12T14:42:26.238Z,100112.75
2023-03-12T14:47:28.970Z,100104.03
2023-03-12T14:52:31.572Z,100100.22
2023-03-12T14:57:34.122Z,100097.31
2023-03-12T15:02:38.540Z,100099.25
2023-03-12T15:07:43.148Z,100105.41
2023-03-12T15:12:46.505Z,100090.16
2023-03-12T15:17:50.068Z,100111.75
2023-03-12T15:22:53.342Z,100093.31
2023-03-12T15:28:22.972Z,100110.47
2023-03-12T15:33:26.968Z,100093.13
2023-03-12T15:38:33.301Z,100096.19
2023-03-12T15:43:38.719Z,100100.28
2023-03-12T15:48:42.049Z,100110.72
2023-03-12T15:53:44.326Z,100095.09
2023-03-12T15:58:46.543Z,100105.63
2023-03-12T16:03:49.563Z,100094.34
2023-03-12T16:09:03.453Z,100109.94
2023-03-12T16:14:13.889Z,100114.19
2023-03-12T16:19:19.135Z,100113.41
2023-03-12T16:24:21.579Z,100116.56
2023-03-12T16:29:31.899Z,100125.16
2023-03-12T16:34:33.994Z,100153.81
2023-03-12T16:39:36.296Z,100161.84
2023-03-12T16:44:38.877Z,100177.16
2023-03-12T16:49:41.400Z,100169.91
2023-03-12T16:54:43.740Z,100177.09
2023-03-12T16:59:46.772Z,100177.66
2023-03-12T17:04:49.302Z,100192.81
2023-03-12T17:09:52.371Z,100207.13
2023-03-12T17:14:55.245Z,100229.75
2023-03-12T17:20:01.233Z,100237.69
2023-03-12T17:25:04.146Z,100243.13
2023-03-12T17:30:09.140Z,100252.25
2023-03-12T17:35:11.963Z,100275.66
2023-03-12T17:40:15.519Z,100286.88
2023-03-12T17:45:19.511Z,100288.16
2023-03-12T17:50:22.622Z,100287.94
2023-03-12T17:55:24.853Z,100301.63
2023-03-12T18:00:26.985Z,100301.38
2023-03-12T18:05:29.815Z,100324.19
2023-03-12T18:10:34.966Z,100315.09
2023-03-12T18:15:38.167Z,100356.28
2023-03-12T18:20:41.155Z,100354.84
2023-03-12T18:25:44.490Z,100366.66
2023-03-12T18:30:48.016Z,100386.56
2023-03-12T18:35:53.230Z,100385.84
2023-03-12T18:41:19.546Z,100412.25
2023-03-12T18:46:25.001Z,100407.16
2023-03-12T18:51:27.813Z,100431.50
2023-03-12T18:56:30.421Z,100426.31
2023-03-12T19:06:52.892Z,100448.78
2023-03-12T19:11:55.768Z,100457.56
2023-03-12T19:16:58.342Z,100476.44
2023-03-12T19:22:02.762Z,100480.03
2023-03-12T19:27:04.982Z,100494.78
2023-03-12T19:32:08.274Z,100492.84
2023-03-12T19:37:10.691Z,100498.47
2023-03-12T19:42:14.056Z,100522.47
2023-03-12T19:47:18.332Z,100531.88
2023-03-12T19:52:21.659Z,100512.28
2023-03-12T19:57:24.836Z,100535.13
2023-03-12T20:02:27.806Z,100531.34
2023-03-12T20:07:30.105Z,100539.97
2023-03-12T20:12:33.645Z,100527.50
2023-03-12T20:17:36.605Z,100548.75
2023-03-12T20:22:38.786Z,100540.50
2023-03-12T20:27:41.869Z,100541.09
2023-03-12T20:32:44.204Z,100556.81
2023-03-12T20:37:46.583Z,100577.25
2023-03-12T20:42:48.735Z,100578.63
2023-03-12T20:47:51.637Z,100585.34
2023-03-12T20:52:55.141Z,100594.56
2023-03-12T20:57:57.322Z,100615.84
2023-03-12T21:02:59.627Z,100605.22
2023-03-12T21:08:02.099Z,100590.66
2023-03-12T21:13:08.843Z,100606.50
2023-03-12T21:18:11.928Z,100605.84
2023-03-12T21:23:16.750Z,100611.63
2023-03-12T21:28:19.782Z,100612.22
2023-03-12T21:33:22.479Z,100641.94
2023-03-12T21:38:25.467Z,100610.16
2023-03-12T21:43:29.761Z,100642.03
2023-03-12T21:48:32.059Z,100625.50
2023-03-12T21:53:34.766Z,100637.97
2023-03-12T21:58:37.555Z,100639.19
2023-03-12T22:03:42.323Z,100640.03
2023-03-12T22:08:48.985Z,100617.88
2023-03-12T22:13:52.235Z,100651.31
2023-03-12T22:18:54.566Z,100648.34
2023-03-12T22:23:58.521Z,100647.13
2023-03-12T22:29:02.598Z,100651.59
2023-03-12T22:34:04.928Z,100650.00
2023-03-12T22:39:07.248Z,100685.09
2023-03-12T22:44:09.782Z,100659.34
2023-03-12T22:49:12.097Z,100682.31
2023-03-12T22:54:14.342Z,100665.47
2023-03-12T22:59:16.511Z,100683.22
2023-03-12T23:04:18.817Z,100691.47
2023-03-12T23:09:21.138Z,100693.00
2023-03-12T23:14:23.294Z,100690.94
2023-03-12T23:19:25.478Z,100702.31
2023-03-12T23:24:30.017Z,100712.41
2023-03-12T23:29:33.334Z,100731.16
2023-03-12T23:34:35.426Z,100723.00
2023-03-12T23:39:53.506Z,100729.25
2023-03-12T23:44:56.363Z,100728.91
2023-03-12T23:49:59.360Z,100748.41
2023-03-12T23:55:01.529Z,100753.03
